sensor_id;sensor_type;location;lat;lon;timestamp;temperature;humidity
11446;DHT22;5779;64.178;15.432;2022-09-21T00:02:07;4.50;99.90
11446;DHT22;5779;64.178;15.432;2022-09-21T00:04:54;4.30;99.90
11446;DHT22;5779;64.178;15.432;2022-09-21T00:07:40;4.20;99.90
11446;DHT22;5779;64.178;15.432;2022-09-21T00:10:27;4.20;99.90
11446;DHT22;5779;64.178;15.432;2022-09-21T00:13:14;4.10;99.90
11446;DHT22;5779;64.178;15.432;2022-09-21T00:16:04;4.00;99.90
11446;DHT22;5779;64.178;15.432;2022-09-21T00:18:53;3.90;99.90
11446;DHT22;5779;64.178;15.432;2022-09-21T00:21:39;3.80;99.90
11446;DHT22;5779;64.178;15.432;2022-09-21T00:24:26;3.80;99.90
11446;DHT22;5779;64.178;15.432;2022-09-21T00:27:13;3.80;99.90
11446;DHT22;5779;64.178;15.432;2022-09-21T00:30:00;3.60;99.90
11446;DHT22;5779;64.178;15.432;2022-09-21T00:32:48;3.50;99.90
11446;DHT22;5779;64.178;15.432;2022-09-21T00:35:37;3.40;99.90
11446;DHT22;5779;64.178;15.432;2022-09-21T00:38:25;3.30;99.90
11446;DHT22;5779;64.178;15.432;2022-09-21T00:41:12;3.20;99.90
11446;DHT22;5779;64.178;15.432;2022-09-21T00:44:28;3.00;99.90
11446;DHT22;5779;64.178;15.432;2022-09-21T00:47:18;2.90;99.90
11446;DHT22;5779;64.178;15.432;2022-09-21T00:50:08;2.80;99.90
11446;DHT22;5779;64.178;15.432;2022-09-21T00:52:57;2.80;99.90
11446;DHT22;5779;64.178;15.432;2022-09-21T00:55:45;2.70;99.90
11446;DHT22;5779;64.178;15.432;2022-09-21T00:58:37;2.60;99.90
11446;DHT22;5779;64.178;15.432;2022-09-21T01:01:26;2.30;99.90
11446;DHT22;5779;64.178;15.432;2022-09-21T01:04:12;2.30;99.90
11446;DHT22;5779;64.178;15.432;2022-09-21T01:07:04;2.10;99.90
11446;DHT22;5779;64.178;15.432;2022-09-21T01:09:54;2.00;99.90
11446;DHT22;5779;64.178;15.432;2022-09-21T01:12:54;1.80;99.90
11446;DHT22;5779;64.178;15.432;2022-09-21T01:15:49;1.70;99.90
11446;DHT22;5779;64.178;15.432;2022-09-21T01:18:43;1.70;99.90
11446;DHT22;5779;64.178;15.432;2022-09-21T01:21:33;1.70;99.90
11446;DHT22;5779;64.178;15.432;2022-09-21T01:24:39;1.80;99.90
11446;DHT22;5779;64.178;15.432;2022-09-21T01:27:50;1.90;99.90
11446;DHT22;5779;64.178;15.432;2022-09-21T01:30:39;1.80;99.90
11446;DHT22;5779;64.178;15.432;2022-09-21T01:33:31;1.80;99.90
11446;DHT22;5779;64.178;15.432;2022-09-21T01:36:24;1.70;99.90
11446;DHT22;5779;64.178;15.432;2022-09-21T01:39:16;1.40;99.90
11446;DHT22;5779;64.178;15.432;2022-09-21T01:42:05;1.50;99.90
11446;DHT22;5779;64.178;15.432;2022-09-21T01:44:53;1.60;99.90
11446;DHT22;5779;64.178;15.432;2022-09-21T01:47:45;1.60;99.90
11446;DHT22;5779;64.178;15.432;2022-09-21T01:50:36;1.70;99.90
11446;DHT22;5779;64.178;15.432;2022-09-21T01:53:31;1.70;99.90
11446;DHT22;5779;64.178;15.432;2022-09-21T01:56:23;1.70;99.90
11446;DHT22;5779;64.178;15.432;2022-09-21T01:59:16;1.60;99.90
11446;DHT22;5779;64.178;15.432;2022-09-21T02:02:11;1.50;99.90
11446;DHT22;5779;64.178;15.432;2022-09-21T02:05:02;1.40;99.90
11446;DHT22;5779;64.178;15.432;2022-09-21T02:07:50;1.40;99.90
11446;DHT22;5779;64.178;15.432;2022-09-21T02:10:41;1.50;99.90
11446;DHT22;5779;64.178;15.432;2022-09-21T02:13:31;1.60;99.90
11446;DHT22;5779;64.178;15.432;2022-09-21T02:16:33;1.60;99.90
11446;DHT22;5779;64.178;15.432;2022-09-21T02:19:30;1.50;99.90
11446;DHT22;5779;64.178;15.432;2022-09-21T02:22:30;1.50;99.90
11446;DHT22;5779;64.178;15.432;2022-09-21T02:25:21;1.20;99.90
11446;DHT22;5779;64.178;15.432;2022-09-21T02:28:16;1.20;99.90
11446;DHT22;5779;64.178;15.432;2022-09-21T02:31:11;1.30;99.90
11446;DHT22;5779;64.178;15.432;2022-09-21T02:34:02;1.40;99.90
11446;DHT22;5779;64.178;15.432;2022-09-21T02:36:54;1.50;99.90
11446;DHT22;5779;64.178;15.432;2022-09-21T02:39:48;1.60;99.90
11446;DHT22;5779;64.178;15.432;2022-09-21T02:42:41;1.60;99.90
11446;DHT22;5779;64.178;15.432;2022-09-21T02:45:31;1.70;99.90
11446;DHT22;5779;64.178;15.432;2022-09-21T02:48:24;1.80;99.90
11446;DHT22;5779;64.178;15.432;2022-09-21T02:51:15;1.80;99.90
11446;DHT22;5779;64.178;15.432;2022-09-21T02:54:04;1.50;99.90
11446;DHT22;5779;64.178;15.432;2022-09-21T02:56:54;1.60;99.90
11446;DHT22;5779;64.178;15.432;2022-09-21T02:59:42;1.70;99.90
11446;DHT22;5779;64.178;15.432;2022-09-21T03:02:36;1.80;99.90
11446;DHT22;5779;64.178;15.432;2022-09-21T03:05:23;1.80;99.90
11446;DHT22;5779;64.178;15.432;2022-09-21T03:08:10;2.00;99.90
11446;DHT22;5779;64.178;15.432;2022-09-21T03:10:57;2.00;99.90
11446;DHT22;5779;64.178;15.432;2022-09-21T03:13:46;1.80;99.90
11446;DHT22;5779;64.178;15.432;2022-09-21T03:16:33;1.80;99.90
11446;DHT22;5779;64.178;15.432;2022-09-21T03:19:19;1.80;99.90
11446;DHT22;5779;64.178;15.432;2022-09-21T03:22:06;1.90;99.90
11446;DHT22;5779;64.178;15.432;2022-09-21T03:24:53;2.00;99.90
11446;DHT22;5779;64.178;15.432;2022-09-21T03:27:41;2.00;99.90
11446;DHT22;5779;64.178;15.432;2022-09-21T03:30:30;2.10;99.90
11446;DHT22;5779;64.178;15.432;2022-09-21T03:33:17;2.20;99.90
11446;DHT22;5779;64.178;15.432;2022-09-21T03:36:04;2.40;99.90
11446;DHT22;5779;64.178;15.432;2022-09-21T03:38:51;2.50;99.90
11446;DHT22;5779;64.178;15.432;2022-09-21T03:41:37;2.40;99.90
11446;DHT22;5779;64.178;15.432;2022-09-21T03:44:24;2.50;99.90
11446;DHT22;5779;64.178;15.432;2022-09-21T03:47:12;2.50;99.90
11446;DHT22;5779;64.178;15.432;2022-09-21T03:49:59;2.40;99.90
11446;DHT22;5779;64.178;15.432;2022-09-21T03:52:45;2.50;99.90
11446;DHT22;5779;64.178;15.432;2022-09-21T03:55:32;2.50;99.90
11446;DHT22;5779;64.178;15.432;2022-09-21T03:58:19;2.50;99.90
11446;DHT22;5779;64.178;15.432;2022-09-21T04:01:06;2.60;99.90
11446;DHT22;5779;64.178;15.432;2022-09-21T04:03:54;2.60;99.90
11446;DHT22;5779;64.178;15.432;2022-09-21T04:06:40;2.60;99.90
11446;DHT22;5779;64.178;15.432;2022-09-21T04:09:27;2.50;99.90
11446;DHT22;5779;64.178;15.432;2022-09-21T04:12:14;2.30;99.90
11446;DHT22;5779;64.178;15.432;2022-09-21T04:15:00;2.30;99.90
11446;DHT22;5779;64.178;15.432;2022-09-21T04:17:50;2.50;99.90
11446;DHT22;5779;64.178;15.432;2022-09-21T04:20:38;2.60;99.90
11446;DHT22;5779;64.178;15.432;2022-09-21T04:23:25;2.70;99.90
11446;DHT22;5779;64.178;15.432;2022-09-21T04:26:23;2.70;99.90
11446;DHT22;5779;64.178;15.432;2022-09-21T04:29:11;2.80;99.90
11446;DHT22;5779;64.178;15.432;2022-09-21T04:31:57;2.90;99.90
11446;DHT22;5779;64.178;15.432;2022-09-21T04:34:44;3.00;99.90
11446;DHT22;5779;64.178;15.432;2022-09-21T04:37:32;3.00;99.90
11446;DHT22;5779;64.178;15.432;2022-09-21T04:40:19;2.90;99.90
11446;DHT22;5779;64.178;15.432;2022-09-21T04:43:07;3.00;99.90
11446;DHT22;5779;64.178;15.432;2022-09-21T04:45:54;3.00;99.90
11446;DHT22;5779;64.178;15.432;2022-09-21T04:48:41;3.00;99.90
11446;DHT22;5779;64.178;15.432;2022-09-21T04:51:28;3.00;99.90
11446;DHT22;5779;64.178;15.432;2022-09-21T04:54:17;3.10;99.90
11446;DHT22;5779;64.178;15.432;2022-09-21T04:57:04;3.20;99.90
11446;DHT22;5779;64.178;15.432;2022-09-21T04:59:50;3.20;99.90
11446;DHT22;5779;64.178;15.432;2022-09-21T05:02:37;3.20;99.90
11446;DHT22;5779;64.178;15.432;2022-09-21T05:05:24;3.20;99.90
11446;DHT22;5779;64.178;15.432;2022-09-21T05:08:10;3.20;99.90
11446;DHT22;5779;64.178;15.432;2022-09-21T05:10:58;3.20;99.90
11446;DHT22;5779;64.178;15.432;2022-09-21T05:13:44;3.30;99.90
11446;DHT22;5779;64.178;15.432;2022-09-21T05:16:31;3.20;99.90
11446;DHT22;5779;64.178;15.432;2022-09-21T05:19:18;3.20;99.90
11446;DHT22;5779;64.178;15.432;2022-09-21T05:22:04;3.20;99.90
11446;DHT22;5779;64.178;15.432;2022-09-21T05:24:51;3.30;99.90
11446;DHT22;5779;64.178;15.432;2022-09-21T05:27:39;3.30;99.90
11446;DHT22;5779;64.178;15.432;2022-09-21T05:30:26;3.10;99.90
11446;DHT22;5779;64.178;15.432;2022-09-21T05:33:15;3.00;99.90
11446;DHT22;5779;64.178;15.432;2022-09-21T05:36:10;3.00;99.90
11446;DHT22;5779;64.178;15.432;2022-09-21T05:39:04;2.90;99.90
11446;DHT22;5779;64.178;15.432;2022-09-21T05:41:51;2.90;99.90
11446;DHT22;5779;64.178;15.432;2022-09-21T05:44:40;2.90;99.90
11446;DHT22;5779;64.178;15.432;2022-09-21T05:47:35;3.10;99.90
11446;DHT22;5779;64.178;15.432;2022-09-21T05:50:39;3.00;99.90
11446;DHT22;5779;64.178;15.432;2022-09-21T05:53:47;3.10;99.90
11446;DHT22;5779;64.178;15.432;2022-09-21T05:56:44;3.10;99.90
11446;DHT22;5779;64.178;15.432;2022-09-21T05:59:47;3.30;99.90
11446;DHT22;5779;64.178;15.432;2022-09-21T06:02:48;3.30;99.90
11446;DHT22;5779;64.178;15.432;2022-09-21T06:05:35;3.40;99.90
11446;DHT22;5779;64.178;15.432;2022-09-21T06:08:22;3.50;99.90
11446;DHT22;5779;64.178;15.432;2022-09-21T06:11:08;3.70;99.90
11446;DHT22;5779;64.178;15.432;2022-09-21T06:13:55;3.80;99.90
11446;DHT22;5779;64.178;15.432;2022-09-21T06:16:43;3.80;99.90
11446;DHT22;5779;64.178;15.432;2022-09-21T06:19:29;3.80;99.90
11446;DHT22;5779;64.178;15.432;2022-09-21T06:22:16;3.90;99.90
11446;DHT22;5779;64.178;15.432;2022-09-21T06:25:03;4.00;99.90
11446;DHT22;5779;64.178;15.432;2022-09-21T06:27:50;4.10;99.90
11446;DHT22;5779;64.178;15.432;2022-09-21T06:30:37;4.20;99.90
11446;DHT22;5779;64.178;15.432;2022-09-21T06:33:27;4.40;99.90
11446;DHT22;5779;64.178;15.432;2022-09-21T06:36:14;4.50;99.90
11446;DHT22;5779;64.178;15.432;2022-09-21T06:39:01;4.70;99.90
11446;DHT22;5779;64.178;15.432;2022-09-21T06:41:48;4.80;99.90
11446;DHT22;5779;64.178;15.432;2022-09-21T06:44:34;5.10;99.90
11446;DHT22;5779;64.178;15.432;2022-09-21T06:47:21;5.10;99.90
11446;DHT22;5779;64.178;15.432;2022-09-21T06:50:09;5.10;99.90
11446;DHT22;5779;64.178;15.432;2022-09-21T06:52:58;5.30;99.90
11446;DHT22;5779;64.178;15.432;2022-09-21T06:55:45;5.30;99.90
11446;DHT22;5779;64.178;15.432;2022-09-21T06:58:31;5.40;99.90
11446;DHT22;5779;64.178;15.432;2022-09-21T07:01:19;5.40;99.90
11446;DHT22;5779;64.178;15.432;2022-09-21T07:04:06;5.50;99.90
11446;DHT22;5779;64.178;15.432;2022-09-21T07:06:54;5.40;99.90
11446;DHT22;5779;64.178;15.432;2022-09-21T07:09:41;5.50;99.90
11446;DHT22;5779;64.178;15.432;2022-09-21T07:12:28;5.60;99.90
11446;DHT22;5779;64.178;15.432;2022-09-21T07:15:16;5.60;99.90
11446;DHT22;5779;64.178;15.432;2022-09-21T07:18:10;5.70;99.90
11446;DHT22;5779;64.178;15.432;2022-09-21T07:20:57;5.70;99.90
11446;DHT22;5779;64.178;15.432;2022-09-21T07:23:44;5.80;99.90
11446;DHT22;5779;64.178;15.432;2022-09-21T07:26:31;5.90;99.90
11446;DHT22;5779;64.178;15.432;2022-09-21T07:29:18;6.00;99.90
11446;DHT22;5779;64.178;15.432;2022-09-21T07:32:04;6.00;99.90
11446;DHT22;5779;64.178;15.432;2022-09-21T07:34:51;6.10;99.90
11446;DHT22;5779;64.178;15.432;2022-09-21T07:37:40;6.20;99.90
11446;DHT22;5779;64.178;15.432;2022-09-21T07:40:29;6.20;99.90
11446;DHT22;5779;64.178;15.432;2022-09-21T07:43:16;6.20;99.90
11446;DHT22;5779;64.178;15.432;2022-09-21T07:46:03;6.20;99.90
11446;DHT22;5779;64.178;15.432;2022-09-21T07:48:52;5.90;99.90
11446;DHT22;5779;64.178;15.432;2022-09-21T07:51:39;6.10;99.90
11446;DHT22;5779;64.178;15.432;2022-09-21T07:54:25;6.10;99.90
11446;DHT22;5779;64.178;15.432;2022-09-21T07:57:13;6.30;99.90
11446;DHT22;5779;64.178;15.432;2022-09-21T08:00:17;6.40;99.90
11446;DHT22;5779;64.178;15.432;2022-09-21T08:03:04;6.40;99.90
11446;DHT22;5779;64.178;15.432;2022-09-21T08:05:51;6.30;99.90
11446;DHT22;5779;64.178;15.432;2022-09-21T08:08:37;6.40;99.90
11446;DHT22;5779;64.178;15.432;2022-09-21T08:11:26;6.50;99.90
11446;DHT22;5779;64.178;15.432;2022-09-21T08:14:15;6.50;99.90
11446;DHT22;5779;64.178;15.432;2022-09-21T08:17:04;6.70;99.90
11446;DHT22;5779;64.178;15.432;2022-09-21T08:19:50;6.90;99.90
11446;DHT22;5779;64.178;15.432;2022-09-21T08:22:38;6.90;99.90
11446;DHT22;5779;64.178;15.432;2022-09-21T08:25:25;7.10;99.90
11446;DHT22;5779;64.178;15.432;2022-09-21T08:28:12;7.20;99.90
11446;DHT22;5779;64.178;15.432;2022-09-21T08:31:00;7.30;99.90
11446;DHT22;5779;64.178;15.432;2022-09-21T08:33:47;7.30;99.90
11446;DHT22;5779;64.178;15.432;2022-09-21T08:36:34;7.40;99.90
11446;DHT22;5779;64.178;15.432;2022-09-21T08:39:20;7.50;99.90
11446;DHT22;5779;64.178;15.432;2022-09-21T08:42:23;7.30;99.90
11446;DHT22;5779;64.178;15.432;2022-09-21T08:45:14;7.30;99.90
11446;DHT22;5779;64.178;15.432;2022-09-21T08:48:08;7.40;99.90
11446;DHT22;5779;64.178;15.432;2022-09-21T08:50:59;7.30;99.90
11446;DHT22;5779;64.178;15.432;2022-09-21T08:53:48;7.40;99.90
11446;DHT22;5779;64.178;15.432;2022-09-21T08:56:37;7.50;99.90
11446;DHT22;5779;64.178;15.432;2022-09-21T08:59:23;7.30;99.90
11446;DHT22;5779;64.178;15.432;2022-09-21T09:02:29;7.30;99.90
11446;DHT22;5779;64.178;15.432;2022-09-21T09:05:31;7.50;99.90
11446;DHT22;5779;64.178;15.432;2022-09-21T09:08:47;7.70;99.90
11446;DHT22;5779;64.178;15.432;2022-09-21T09:11:47;7.90;99.90
11446;DHT22;5779;64.178;15.432;2022-09-21T09:15:03;8.00;99.90
11446;DHT22;5779;64.178;15.432;2022-09-21T09:17:59;8.00;99.90
11446;DHT22;5779;64.178;15.432;2022-09-21T09:20:56;8.10;99.90
11446;DHT22;5779;64.178;15.432;2022-09-21T09:23:45;8.20;99.90
11446;DHT22;5779;64.178;15.432;2022-09-21T09:26:37;8.20;99.90
11446;DHT22;5779;64.178;15.432;2022-09-21T09:29:30;8.40;99.90
11446;DHT22;5779;64.178;15.432;2022-09-21T09:32:22;8.40;99.90
11446;DHT22;5779;64.178;15.432;2022-09-21T09:35:19;8.40;99.90
11446;DHT22;5779;64.178;15.432;2022-09-21T09:38:15;8.40;99.90
11446;DHT22;5779;64.178;15.432;2022-09-21T09:41:18;8.50;99.90
11446;DHT22;5779;64.178;15.432;2022-09-21T09:47:21;8.50;99.90
11446;DHT22;5779;64.178;15.432;2022-09-21T09:50:12;8.40;99.90
11446;DHT22;5779;64.178;15.432;2022-09-21T09:53:04;8.60;99.90
11446;DHT22;5779;64.178;15.432;2022-09-21T09:55:55;8.80;99.90
11446;DHT22;5779;64.178;15.432;2022-09-21T09:58:46;8.80;99.90
11446;DHT22;5779;64.178;15.432;2022-09-21T10:01:39;8.90;99.90
11446;DHT22;5779;64.178;15.432;2022-09-21T10:04:26;9.10;99.90
11446;DHT22;5779;64.178;15.432;2022-09-21T10:07:17;9.20;99.90
11446;DHT22;5779;64.178;15.432;2022-09-21T10:10:31;9.20;99.90
11446;DHT22;5779;64.178;15.432;2022-09-21T10:13:26;9.30;99.90
11446;DHT22;5779;64.178;15.432;2022-09-21T10:16:17;9.30;99.90
11446;DHT22;5779;64.178;15.432;2022-09-21T10:19:04;9.40;99.90
11446;DHT22;5779;64.178;15.432;2022-09-21T10:21:55;9.40;99.90
11446;DHT22;5779;64.178;15.432;2022-09-21T10:24:45;9.60;99.90
11446;DHT22;5779;64.178;15.432;2022-09-21T10:27:36;9.50;99.90
11446;DHT22;5779;64.178;15.432;2022-09-21T10:30:34;9.60;99.90
11446;DHT22;5779;64.178;15.432;2022-09-21T10:33:22;9.60;99.90
11446;DHT22;5779;64.178;15.432;2022-09-21T10:36:28;9.60;99.90
11446;DHT22;5779;64.178;15.432;2022-09-21T10:39:23;9.90;99.90
11446;DHT22;5779;64.178;15.432;2022-09-21T10:42:12;10.20;99.90
11446;DHT22;5779;64.178;15.432;2022-09-21T10:45:06;10.50;99.90
11446;DHT22;5779;64.178;15.432;2022-09-21T10:48:08;10.70;99.90
11446;DHT22;5779;64.178;15.432;2022-09-21T10:50:55;10.90;99.90
11446;DHT22;5779;64.178;15.432;2022-09-21T10:53:47;10.90;99.90
11446;DHT22;5779;64.178;15.432;2022-09-21T10:56:34;10.90;99.90
11446;DHT22;5779;64.178;15.432;2022-09-21T10:59:24;11.00;99.90
11446;DHT22;5779;64.178;15.432;2022-09-21T11:02:34;10.90;99.90
11446;DHT22;5779;64.178;15.432;2022-09-21T11:05:27;11.00;99.90
11446;DHT22;5779;64.178;15.432;2022-09-21T11:08:17;11.10;99.90
11446;DHT22;5779;64.178;15.432;2022-09-21T11:11:15;11.20;99.90
11446;DHT22;5779;64.178;15.432;2022-09-21T11:14:09;11.10;99.90
11446;DHT22;5779;64.178;15.432;2022-09-21T11:17:00;11.00;99.90
11446;DHT22;5779;64.178;15.432;2022-09-21T11:19:51;11.10;99.90
11446;DHT22;5779;64.178;15.432;2022-09-21T11:22:44;11.10;99.90
11446;DHT22;5779;64.178;15.432;2022-09-21T11:25:39;11.20;99.90
11446;DHT22;5779;64.178;15.432;2022-09-21T11:28:31;11.30;99.90
11446;DHT22;5779;64.178;15.432;2022-09-21T11:31:34;11.20;99.90
11446;DHT22;5779;64.178;15.432;2022-09-21T11:38:03;11.60;99.90
11446;DHT22;5779;64.178;15.432;2022-09-21T11:41:00;11.70;99.90
11446;DHT22;5779;64.178;15.432;2022-09-21T11:44:03;11.70;99.90
11446;DHT22;5779;64.178;15.432;2022-09-21T11:47:01;11.70;99.90
11446;DHT22;5779;64.178;15.432;2022-09-21T11:50:03;11.90;99.90
11446;DHT22;5779;64.178;15.432;2022-09-21T11:53:07;12.10;99.90
11446;DHT22;5779;64.178;15.432;2022-09-21T11:59:36;12.30;99.90
11446;DHT22;5779;64.178;15.432;2022-09-21T12:02:42;12.40;99.90
11446;DHT22;5779;64.178;15.432;2022-09-21T12:05:33;12.50;99.90
11446;DHT22;5779;64.178;15.432;2022-09-21T12:08:53;12.40;99.90
11446;DHT22;5779;64.178;15.432;2022-09-21T12:11:47;12.40;99.90
11446;DHT22;5779;64.178;15.432;2022-09-21T12:14:39;12.60;99.90
11446;DHT22;5779;64.178;15.432;2022-09-21T12:17:35;12.40;99.90
11446;DHT22;5779;64.178;15.432;2022-09-21T12:20:33;12.30;99.90
11446;DHT22;5779;64.178;15.432;2022-09-21T12:23:27;12.10;99.90
11446;DHT22;5779;64.178;15.432;2022-09-21T12:26:19;11.60;99.90
11446;DHT22;5779;64.178;15.432;2022-09-21T12:29:12;11.60;99.90
11446;DHT22;5779;64.178;15.432;2022-09-21T12:32:03;12.00;99.90
11446;DHT22;5779;64.178;15.432;2022-09-21T12:34:53;12.20;99.90
11446;DHT22;5779;64.178;15.432;2022-09-21T12:37:45;12.00;99.90
11446;DHT22;5779;64.178;15.432;2022-09-21T12:40:37;12.00;99.90
11446;DHT22;5779;64.178;15.432;2022-09-21T12:43:31;12.10;99.90
11446;DHT22;5779;64.178;15.432;2022-09-21T12:46:22;12.10;99.90
11446;DHT22;5779;64.178;15.432;2022-09-21T12:49:16;12.30;99.90
11446;DHT22;5779;64.178;15.432;2022-09-21T12:52:06;12.40;99.90
11446;DHT22;5779;64.178;15.432;2022-09-21T12:54:58;12.20;99.90
11446;DHT22;5779;64.178;15.432;2022-09-21T12:57:51;12.30;99.90
11446;DHT22;5779;64.178;15.432;2022-09-21T13:00:50;12.40;99.90
11446;DHT22;5779;64.178;15.432;2022-09-21T13:03:44;12.50;99.90
11446;DHT22;5779;64.178;15.432;2022-09-21T13:06:57;12.70;99.90
11446;DHT22;5779;64.178;15.432;2022-09-21T13:09:48;12.90;99.90
11446;DHT22;5779;64.178;15.432;2022-09-21T13:12:39;12.80;99.90
11446;DHT22;5779;64.178;15.432;2022-09-21T13:15:31;12.80;99.90
11446;DHT22;5779;64.178;15.432;2022-09-21T13:18:23;12.70;99.90
11446;DHT22;5779;64.178;15.432;2022-09-21T13:21:16;12.90;99.90
11446;DHT22;5779;64.178;15.432;2022-09-21T13:24:05;12.90;99.90
11446;DHT22;5779;64.178;15.432;2022-09-21T13:26:54;12.90;99.90
11446;DHT22;5779;64.178;15.432;2022-09-21T13:33:39;13.10;99.90
11446;DHT22;5779;64.178;15.432;2022-09-21T13:36:32;13.10;99.90
11446;DHT22;5779;64.178;15.432;2022-09-21T13:39:19;13.00;99.90
11446;DHT22;5779;64.178;15.432;2022-09-21T13:45:49;13.10;99.90
11446;DHT22;5779;64.178;15.432;2022-09-21T13:48:37;13.00;99.90
11446;DHT22;5779;64.178;15.432;2022-09-21T13:51:25;13.00;99.90
11446;DHT22;5779;64.178;15.432;2022-09-21T13:54:12;13.10;99.90
11446;DHT22;5779;64.178;15.432;2022-09-21T13:57:04;13.20;99.90
11446;DHT22;5779;64.178;15.432;2022-09-21T14:00:07;13.30;99.90
11446;DHT22;5779;64.178;15.432;2022-09-21T14:02:57;13.50;99.90
11446;DHT22;5779;64.178;15.432;2022-09-21T14:05:48;13.50;99.90
11446;DHT22;5779;64.178;15.432;2022-09-21T14:08:37;13.40;99.90
11446;DHT22;5779;64.178;15.432;2022-09-21T14:11:30;13.30;99.90
11446;DHT22;5779;64.178;15.432;2022-09-21T14:14:22;13.50;99.90
11446;DHT22;5779;64.178;15.432;2022-09-21T14:17:34;13.20;99.90
11446;DHT22;5779;64.178;15.432;2022-09-21T14:20:26;13.00;99.90
11446;DHT22;5779;64.178;15.432;2022-09-21T14:23:27;13.10;99.90
11446;DHT22;5779;64.178;15.432;2022-09-21T14:26:32;13.20;99.90
11446;DHT22;5779;64.178;15.432;2022-09-21T14:29:22;13.30;99.90
11446;DHT22;5779;64.178;15.432;2022-09-21T14:32:15;13.50;99.90
11446;DHT22;5779;64.178;15.432;2022-09-21T14:35:10;13.70;99.90
11446;DHT22;5779;64.178;15.432;2022-09-21T14:37:59;13.80;99.90
11446;DHT22;5779;64.178;15.432;2022-09-21T14:40:50;13.90;99.90
11446;DHT22;5779;64.178;15.432;2022-09-21T14:43:38;14.10;99.90
11446;DHT22;5779;64.178;15.432;2022-09-21T14:46:47;14.10;99.90
11446;DHT22;5779;64.178;15.432;2022-09-21T14:49:45;14.10;99.90
11446;DHT22;5779;64.178;15.432;2022-09-21T14:52:44;14.00;99.90
11446;DHT22;5779;64.178;15.432;2022-09-21T14:55:44;14.10;99.90
11446;DHT22;5779;64.178;15.432;2022-09-21T14:58:45;14.20;99.90
11446;DHT22;5779;64.178;15.432;2022-09-21T15:01:37;14.50;99.90
11446;DHT22;5779;64.178;15.432;2022-09-21T15:04:30;14.50;99.90
11446;DHT22;5779;64.178;15.432;2022-09-21T15:07:30;14.70;99.90
11446;DHT22;5779;64.178;15.432;2022-09-21T15:10:50;14.60;99.90
11446;DHT22;5779;64.178;15.432;2022-09-21T15:13:55;14.50;99.90
11446;DHT22;5779;64.178;15.432;2022-09-21T15:16:45;14.40;99.90
11446;DHT22;5779;64.178;15.432;2022-09-21T15:19:35;14.40;99.90
11446;DHT22;5779;64.178;15.432;2022-09-21T15:22:22;14.20;99.90
11446;DHT22;5779;64.178;15.432;2022-09-21T15:25:12;13.80;99.90
11446;DHT22;5779;64.178;15.432;2022-09-21T15:27:59;13.60;99.90
11446;DHT22;5779;64.178;15.432;2022-09-21T15:30:47;13.40;99.90
11446;DHT22;5779;64.178;15.432;2022-09-21T15:33:36;13.20;99.90
11446;DHT22;5779;64.178;15.432;2022-09-21T15:36:28;13.20;99.90
11446;DHT22;5779;64.178;15.432;2022-09-21T15:39:24;12.80;99.90
11446;DHT22;5779;64.178;15.432;2022-09-21T15:42:19;12.80;99.90
11446;DHT22;5779;64.178;15.432;2022-09-21T15:45:13;12.90;99.90
11446;DHT22;5779;64.178;15.432;2022-09-21T15:48:02;12.70;99.90
11446;DHT22;5779;64.178;15.432;2022-09-21T15:50:53;12.70;99.90
11446;DHT22;5779;64.178;15.432;2022-09-21T15:53:45;12.70;99.90
11446;DHT22;5779;64.178;15.432;2022-09-21T15:56:42;12.80;99.90
11446;DHT22;5779;64.178;15.432;2022-09-21T15:59:31;12.60;99.90
11446;DHT22;5779;64.178;15.432;2022-09-21T16:02:23;12.00;99.90
11446;DHT22;5779;64.178;15.432;2022-09-21T16:05:13;11.70;99.90
11446;DHT22;5779;64.178;15.432;2022-09-21T16:08:05;11.70;99.90
11446;DHT22;5779;64.178;15.432;2022-09-21T16:11:10;11.90;99.90
11446;DHT22;5779;64.178;15.432;2022-09-21T16:13:58;12.10;99.90
11446;DHT22;5779;64.178;15.432;2022-09-21T16:17:23;12.20;99.90
11446;DHT22;5779;64.178;15.432;2022-09-21T16:20:19;12.30;99.90
11446;DHT22;5779;64.178;15.432;2022-09-21T16:23:15;12.30;99.90
11446;DHT22;5779;64.178;15.432;2022-09-21T16:26:02;12.00;99.90
11446;DHT22;5779;64.178;15.432;2022-09-21T16:28:55;11.90;99.90
11446;DHT22;5779;64.178;15.432;2022-09-21T16:31:42;11.60;99.90
11446;DHT22;5779;64.178;15.432;2022-09-21T16:34:30;11.60;99.90
11446;DHT22;5779;64.178;15.432;2022-09-21T16:37:25;11.80;99.90
11446;DHT22;5779;64.178;15.432;2022-09-21T16:40:13;11.90;99.90
11446;DHT22;5779;64.178;15.432;2022-09-21T16:43:00;12.00;99.90
11446;DHT22;5779;64.178;15.432;2022-09-21T16:45:49;12.00;99.90
11446;DHT22;5779;64.178;15.432;2022-09-21T16:48:36;12.10;99.90
11446;DHT22;5779;64.178;15.432;2022-09-21T16:51:25;12.10;99.90
11446;DHT22;5779;64.178;15.432;2022-09-21T16:54:14;12.10;99.90
11446;DHT22;5779;64.178;15.432;2022-09-21T16:57:02;12.00;99.90
11446;DHT22;5779;64.178;15.432;2022-09-21T16:59:49;11.90;99.90
11446;DHT22;5779;64.178;15.432;2022-09-21T17:02:36;11.80;99.90
11446;DHT22;5779;64.178;15.432;2022-09-21T17:05:26;11.60;99.90
11446;DHT22;5779;64.178;15.432;2022-09-21T17:08:13;11.30;99.90
11446;DHT22;5779;64.178;15.432;2022-09-21T17:11:02;11.00;99.90
11446;DHT22;5779;64.178;15.432;2022-09-21T17:13:49;10.50;99.90
11446;DHT22;5779;64.178;15.432;2022-09-21T17:16:35;10.20;99.90
11446;DHT22;5779;64.178;15.432;2022-09-21T17:19:22;9.90;99.90
11446;DHT22;5779;64.178;15.432;2022-09-21T17:22:09;9.80;99.90
11446;DHT22;5779;64.178;15.432;2022-09-21T17:25:01;9.70;99.90
11446;DHT22;5779;64.178;15.432;2022-09-21T17:27:49;9.60;99.90
11446;DHT22;5779;64.178;15.432;2022-09-21T17:30:36;9.60;99.90
11446;DHT22;5779;64.178;15.432;2022-09-21T17:33:25;9.60;99.90
11446;DHT22;5779;64.178;15.432;2022-09-21T17:36:12;9.50;99.90
11446;DHT22;5779;64.178;15.432;2022-09-21T17:39:00;9.20;99.90
11446;DHT22;5779;64.178;15.432;2022-09-21T17:41:50;9.30;99.90
11446;DHT22;5779;64.178;15.432;2022-09-21T17:44:47;9.10;99.90
11446;DHT22;5779;64.178;15.432;2022-09-21T17:47:40;9.00;99.90
11446;DHT22;5779;64.178;15.432;2022-09-21T17:50:27;9.10;99.90
11446;DHT22;5779;64.178;15.432;2022-09-21T17:53:15;9.30;99.90
11446;DHT22;5779;64.178;15.432;2022-09-21T17:56:30;9.30;99.90
11446;DHT22;5779;64.178;15.432;2022-09-21T17:59:26;9.40;99.90
11446;DHT22;5779;64.178;15.432;2022-09-21T18:02:21;9.40;99.90
11446;DHT22;5779;64.178;15.432;2022-09-21T18:05:16;9.40;99.90
11446;DHT22;5779;64.178;15.432;2022-09-21T18:08:06;9.40;99.90
11446;DHT22;5779;64.178;15.432;2022-09-21T18:11:01;9.50;99.90
11446;DHT22;5779;64.178;15.432;2022-09-21T18:13:59;9.40;99.90
11446;DHT22;5779;64.178;15.432;2022-09-21T18:16:58;9.20;99.90
11446;DHT22;5779;64.178;15.432;2022-09-21T18:20:11;9.10;99.90
11446;DHT22;5779;64.178;15.432;2022-09-21T18:23:09;9.00;99.90
11446;DHT22;5779;64.178;15.432;2022-09-21T18:26:00;9.10;99.90
11446;DHT22;5779;64.178;15.432;2022-09-21T18:28:48;9.00;99.90
11446;DHT22;5779;64.178;15.432;2022-09-21T18:31:50;9.10;99.90
11446;DHT22;5779;64.178;15.432;2022-09-21T18:35:05;9.10;99.90